עמוד ראשי
METAR-TAF:

METAR-TAF

שדות תעופה :

Qaisumah, ערב הסעודית

קו רוחב: 28-19N, קו אורך: 046-07E, גובה: 358מטר

תצפית מזג אוויר נוכחית

הדו"ח נערך לפני 1 שעות ו 17דקות, בשעה 19:00 UTC
רוח 4קשר מכיוון צפון/צפון-מערב
טמפרטורת 36 צלסיוס
לחות 9%
לחץ 1005 hPa
ראות 10 קילומטר או יותר
ללא עננים שבסיסם נמוך מ 5000 רגל או קומולונימבוס

METAR: OEPA 131900Z 33004KT CAVOK 36/M02 Q1005 NOSIG

זמן: 23:17 (20:17 UTC)

תחזית

הדו"ח נערך לפני 10 שעות ו 17דקות, בשעה 10:00 UTC
תחזית בתוקף מ 13 ב 12 UTC עד 14 ב 18 UTC
רוח 15קשר מכיוון צפון-מערב
ראות 10 קילומטר או יותר
ללא עננים שבסיסם נמוך מ 5000 רגל או קומולונימבוס
יעשה מ
13 ב 18 UTC עד 13 ב 20 UTC
רוח 5קשר מכיוון מערב/צפון-מערב

TAF: OEPA 131000Z 1312/1418 32015KT CAVOK BECMG 1318/1320 29005KT

תצפיות ותחזיות מזג אוויר לגבי יותר מ- 4,000 שדות תעופה ברחבי העולם. דוחות METAR ו- TAF.

התחנות הזמינות מסומנות בנקודות צהובות ואדומות על גבי המפה.

העבר את העכבר לנקודה הצבעונית על מנת לראות את שם התחנה.

לאחר מכן, לחץ כדי לראות את תוכן ואת תחזיות מזג האוויר.

כדי לשנות את המפה: לחץ על הכפתורים הירוקים עם הפלוס השחור כדי להתקרב; על הכפתור הירוק עם המקף כדי להתרחק; או בחיצים הירוקים למפות סמוכות.


METAR-TAF: